createdAt,value
2023-03-16T00:00:15.373Z,99366.22
2023-03-16T00:02:42.840Z,99374.81
2023-03-16T00:05:11.374Z,99370.38
2023-03-16T00:07:37.827Z,99363.91
2023-03-16T00:10:06.150Z,99362.97
2023-03-16T00:12:32.691Z,99366.00
2023-03-16T00:14:59.243Z,99381.25
2023-03-16T00:17:25.582Z,99373.06
2023-03-16T00:19:56.231Z,99365.13
2023-03-16T00:22:27.597Z,99372.84
2023-03-16T00:24:54.983Z,99371.50
2023-03-16T00:27:23.169Z,99371.72
2023-03-16T00:29:51.557Z,99376.44
2023-03-16T00:32:20.886Z,99371.41
2023-03-16T00:34:47.791Z,99377.69
2023-03-16T00:37:18.366Z,99376.34
2023-03-16T00:39:46.518Z,99373.94
2023-03-16T00:42:15.043Z,99377.50
2023-03-16T00:44:42.567Z,99379.28
2023-03-16T00:47:09.703Z,99383.69
2023-03-16T00:49:36.708Z,99381.16
2023-03-16T00:52:04.618Z,99382.34
2023-03-16T00:54:31.534Z,99387.34
2023-03-16T00:56:58.601Z,99377.94
2023-03-16T00:59:25.153Z,99374.47
2023-03-16T01:01:56.100Z,99375.50
2023-03-16T01:04:22.845Z,99375.50
2023-03-16T01:06:49.367Z,99376.25
2023-03-16T01:09:15.899Z,99381.59
2023-03-16T01:11:42.420Z,99386.75
2023-03-16T01:14:10.011Z,99380.97
2023-03-16T01:16:36.393Z,99383.59
2023-03-16T01:19:03.325Z,99384.41
2023-03-16T01:21:29.901Z,99376.25
2023-03-16T01:23:56.600Z,99380.13
2023-03-16T01:26:23.276Z,99376.06
2023-03-16T01:28:49.664Z,99377.31
2023-03-16T01:31:16.364Z,99370.38
2023-03-16T01:33:43.546Z,99376.69
2023-03-16T01:36:15.567Z,99381.72
2023-03-16T01:38:42.399Z,99374.28
2023-03-16T01:41:11.621Z,99370.81
2023-03-16T01:43:39.893Z,99361.69
2023-03-16T01:46:13.550Z,99353.09
2023-03-16T01:48:47.738Z,99357.59
2023-03-16T01:51:28.280Z,99342.19
2023-03-16T01:53:59.239Z,99338.81
2023-03-16T01:56:30.878Z,99338.19
2023-03-16T01:58:59.971Z,99340.09
2023-03-16T02:01:27.395Z,99332.66
2023-03-16T02:04:07.486Z,99337.19
2023-03-16T02:06:35.608Z,99336.22
2023-03-16T02:09:04.674Z,99343.56
2023-03-16T02:11:31.470Z,99340.31
2023-03-16T02:14:07.644Z,99339.81
2023-03-16T02:16:34.102Z,99348.28
2023-03-16T02:19:00.606Z,99350.91
2023-03-16T02:22:02.559Z,99336.66
2023-03-16T02:24:30.896Z,99334.25
2023-03-16T02:27:04.392Z,99318.44
2023-03-16T02:30:01.330Z,99328.16
2023-03-16T02:32:30.799Z,99321.97
2023-03-16T02:34:59.950Z,99315.16
2023-03-16T02:37:27.101Z,99311.63
2023-03-16T02:39:53.607Z,99307.09
2023-03-16T02:42:23.220Z,99309.50
2023-03-16T02:44:54.678Z,99314.25
2023-03-16T02:47:42.444Z,99317.78
2023-03-16T02:50:10.432Z,99311.09
2023-03-16T02:52:39.365Z,99319.78
2023-03-16T02:55:06.497Z,99312.53
2023-03-16T02:57:34.821Z,99319.91
2023-03-16T03:00:01.148Z,99309.44
2023-03-16T03:02:27.529Z,99310.69
2023-03-16T03:04:53.878Z,99304.81
2023-03-16T03:07:21.354Z,99307.03
2023-03-16T03:09:48.060Z,99303.56
2023-03-16T03:12:14.596Z,99315.19
2023-03-16T03:14:40.943Z,99307.53
2023-03-16T03:17:08.779Z,99313.63
2023-03-16T03:19:36.529Z,99301.59
2023-03-16T03:22:04.502Z,99303.25
2023-03-16T03:24:31.599Z,99299.41
2023-03-16T03:26:58.124Z,99301.19
2023-03-16T03:29:24.484Z,99302.31
2023-03-16T03:31:50.921Z,99305.47
2023-03-16T03:34:17.286Z,99302.91
2023-03-16T03:36:43.621Z,99298.97
2023-03-16T03:39:09.948Z,99299.81
2023-03-16T03:41:36.314Z,99287.34
2023-03-16T03:44:04.550Z,99284.72
2023-03-16T03:46:30.915Z,99272.44
2023-03-16T03:48:57.710Z,99268.59
2023-03-16T03:51:24.058Z,99268.88
2023-03-16T03:53:50.391Z,99271.28
2023-03-16T03:56:16.985Z,99266.03
2023-03-16T03:58:43.683Z,99269.53
2023-03-16T04:01:11.047Z,99275.50
2023-03-16T04:03:37.729Z,99266.69
2023-03-16T04:06:04.209Z,99267.56
2023-03-16T04:08:30.686Z,99264.59
2023-03-16T04:10:57.150Z,99259.56
2023-03-16T04:13:23.566Z,99267.97
2023-03-16T04:15:55.547Z,99266.03
2023-03-16T04:18:21.931Z,99261.88
2023-03-16T04:20:48.428Z,99268.03
2023-03-16T04:23:15.034Z,99260.81
2023-03-16T04:25:41.444Z,99262.72
2023-03-16T04:28:08.083Z,99267.84
2023-03-16T04:30:35.879Z,99275.91
2023-03-16T04:33:02.323Z,99271.28
2023-03-16T04:35:28.769Z,99271.50
2023-03-16T04:37:55.111Z,99263.44
2023-03-16T04:40:21.646Z,99253.16
2023-03-16T04:42:49.048Z,99253.69
2023-03-16T04:45:16.643Z,99247.22
2023-03-16T04:47:44.012Z,99246.59
2023-03-16T04:50:11.291Z,99247.44
2023-03-16T04:52:38.186Z,99249.44
2023-03-16T04:55:05.180Z,99251.09
2023-03-16T04:57:31.826Z,99246.69
2023-03-16T04:59:58.319Z,99251.09
2023-03-16T05:02:24.711Z,99252.97
2023-03-16T05:04:51.080Z,99255.72
2023-03-16T05:07:17.433Z,99263.56
2023-03-16T05:09:43.792Z,99265.25
2023-03-16T05:12:10.763Z,99271.22
2023-03-16T05:14:37.210Z,99261.03
2023-03-16T05:17:03.915Z,99258.22
2023-03-16T05:19:30.498Z,99259.16
2023-03-16T05:21:56.983Z,99260.75
2023-03-16T05:24:23.362Z,99256.44
2023-03-16T05:26:49.847Z,99260.75
2023-03-16T05:29:16.214Z,99257.59
2023-03-16T05:31:42.638Z,99264.53
2023-03-16T05:34:09.022Z,99254.75
2023-03-16T05:36:35.726Z,99253.09
2023-03-16T05:39:03.385Z,99257.16
2023-03-16T05:41:29.776Z,99258.22
2023-03-16T05:43:56.483Z,99265.34
2023-03-16T05:46:22.978Z,99267.97
2023-03-16T05:48:49.895Z,99265.03
2023-03-16T05:51:16.273Z,99257.16
2023-03-16T05:53:42.680Z,99262.53
2023-03-16T05:56:10.104Z,99261.44
2023-03-16T05:58:36.792Z,99268.16
2023-03-16T06:01:03.461Z,99265.84
2023-03-16T06:03:29.827Z,99265.19
2023-03-16T06:05:56.264Z,99262.56
2023-03-16T06:08:24.610Z,99265.72
2023-03-16T06:10:52.304Z,99267.25
2023-03-16T06:13:19.316Z,99279.50
2023-03-16T06:15:46.744Z,99277.16
2023-03-16T06:18:13.169Z,99283.75
2023-03-16T06:20:39.844Z,99286.22
2023-03-16T06:23:06.259Z,99295.00
2023-03-16T06:25:34.282Z,99295.88
2023-03-16T06:28:01.053Z,99298.56
2023-03-16T06:30:28.060Z,99309.22
2023-03-16T06:32:54.697Z,99312.81
2023-03-16T06:35:21.860Z,99321.56
2023-03-16T06:37:48.582Z,99328.47
2023-03-16T06:40:15.007Z,99346.91
2023-03-16T06:42:41.756Z,99350.66
2023-03-16T06:45:10.766Z,99361.28
2023-03-16T06:47:37.578Z,99377.09
2023-03-16T06:50:10.256Z,99397.19
2023-03-16T06:52:36.617Z,99403.56
2023-03-16T06:55:04.765Z,99407.88
2023-03-16T06:57:31.265Z,99419.47
2023-03-16T06:59:57.664Z,99439.56
2023-03-16T07:02:24.122Z,99472.06
2023-03-16T07:04:50.735Z,99478.28
2023-03-16T07:07:17.259Z,99501.44
2023-03-16T07:09:43.766Z,99511.72
2023-03-16T07:12:10.636Z,99507.63
2023-03-16T07:14:37.585Z,99506.94
2023-03-16T07:17:04.357Z,99509.94
2023-03-16T07:19:31.152Z,99511.38
2023-03-16T07:21:59.022Z,99510.38
2023-03-16T07:24:25.592Z,99502.38
2023-03-16T07:26:51.964Z,99491.22
2023-03-16T07:29:18.612Z,99487.47
2023-03-16T07:31:45.543Z,99484.19
2023-03-16T07:34:11.897Z,99478.66
2023-03-16T07:36:38.564Z,99469.81
2023-03-16T07:39:05.639Z,99443.16
2023-03-16T07:41:32.864Z,99437.50
2023-03-16T07:44:03.206Z,99409.31
2023-03-16T07:46:29.752Z,99410.28
2023-03-16T07:48:56.671Z,99384.13
2023-03-16T07:51:23.567Z,99380.38
2023-03-16T07:53:50.350Z,99405.44
2023-03-16T07:56:16.764Z,99415.16
2023-03-16T07:58:43.386Z,99358.56
2023-03-16T08:01:10.036Z,99301.47
2023-03-16T08:03:36.575Z,99283.91
2023-03-16T08:06:07.144Z,99303.41
2023-03-16T08:08:33.664Z,99319.19
2023-03-16T08:11:00.196Z,99262.97
2023-03-16T08:13:27.654Z,99253.81
2023-03-16T08:15:54.102Z,99275.94
2023-03-16T08:18:20.509Z,99262.38
2023-03-16T08:20:47.235Z,99279.88
2023-03-16T08:23:13.817Z,99268.00
2023-03-16T08:25:44.455Z,99225.44
2023-03-16T08:28:11.932Z,99214.94
2023-03-16T08:30:45.139Z,99218.47
2023-03-16T08:33:11.764Z,99228.44
2023-03-16T08:35:43.439Z,99231.28
2023-03-16T08:38:10.629Z,99189.97
2023-03-16T08:40:37.626Z,99174.59
2023-03-16T08:43:04.476Z,99159.78
2023-03-16T08:45:31.488Z,99154.06
2023-03-16T08:47:58.274Z,99113.78
2023-03-16T08:50:26.130Z,99097.88
2023-03-16T08:52:54.516Z,99092.72
2023-03-16T08:55:20.956Z,99088.91
2023-03-16T08:57:47.843Z,99096.19
2023-03-16T09:00:19.253Z,99087.19
2023-03-16T09:05:29.561Z,99088.41
2023-03-16T09:07:56.449Z,99085.91
2023-03-16T09:10:23.045Z,99045.06
2023-03-16T09:12:51.218Z,99062.44
2023-03-16T09:15:19.177Z,99037.97
2023-03-16T09:17:46.313Z,99029.53
2023-03-16T09:20:22.256Z,99022.13
2023-03-16T09:23:01.354Z,99019.97
2023-03-16T09:25:28.504Z,99012.34
2023-03-16T09:27:55.387Z,99020.50
2023-03-16T09:30:22.034Z,98998.09
2023-03-16T09:32:48.523Z,98997.06
2023-03-16T09:35:15.258Z,99006.84
2023-03-16T09:37:45.436Z,98993.69
2023-03-16T09:40:26.231Z,98988.28
2023-03-16T09:43:23.133Z,98980.38
2023-03-16T09:46:03.635Z,98972.44
2023-03-16T09:48:32.921Z,98978.16
2023-03-16T09:51:03.732Z,98972.19
2023-03-16T09:53:39.848Z,98968.66
2023-03-16T09:56:14.948Z,98972.16
2023-03-16T09:58:41.569Z,98968.47
2023-03-16T10:01:35.080Z,98969.03
2023-03-16T10:04:36.530Z,98962.94
2023-03-16T10:07:15.086Z,98951.38
2023-03-16T10:09:50.613Z,98943.53
2023-03-16T10:12:17.392Z,98941.47
2023-03-16T10:14:58.367Z,98951.47
2023-03-16T10:17:43.502Z,98947.03
2023-03-16T10:20:23.219Z,98956.50
2023-03-16T10:22:52.589Z,98944.53
2023-03-16T10:25:34.514Z,98948.44
2023-03-16T10:28:01.298Z,98935.38
2023-03-16T10:30:37.165Z,98945.22
2023-03-16T10:33:16.936Z,98944.56
2023-03-16T10:36:05.479Z,98949.81
2023-03-16T10:38:45.655Z,98965.59
2023-03-16T10:41:18.933Z,98954.69
2023-03-16T10:43:46.816Z,98961.56
2023-03-16T10:46:19.652Z,98942.94
2023-03-16T10:48:59.364Z,98947.44
2023-03-16T10:51:29.853Z,98932.19
2023-03-16T10:54:07.719Z,98927.97
2023-03-16T10:56:34.978Z,98919.91
2023-03-16T10:59:01.991Z,98927.38
2023-03-16T11:01:31.159Z,98924.75
2023-03-16T11:03:59.574Z,98925.03
2023-03-16T11:06:29.044Z,98927.13
2023-03-16T11:09:03.010Z,98928.19
2023-03-16T11:11:33.184Z,98934.41
2023-03-16T11:14:03.267Z,98923.31
2023-03-16T11:16:50.520Z,98926.34
2023-03-16T11:19:34.681Z,98899.63
2023-03-16T11:22:09.106Z,98904.72
2023-03-16T11:24:54.628Z,98903.25
2023-03-16T11:27:30.474Z,98907.59
2023-03-16T11:30:17.219Z,98906.13
2023-03-16T11:32:49.676Z,98905.28
2023-03-16T11:35:20.621Z,98900.97
2023-03-16T11:37:51.128Z,98902.59
2023-03-16T11:40:36.341Z,98891.22
2023-03-16T11:43:20.562Z,98890.22
2023-03-16T11:46:12.622Z,98883.72
2023-03-16T11:48:51.940Z,98891.97
2023-03-16T11:51:32.153Z,98894.84
2023-03-16T11:54:11.129Z,98895.41
2023-03-16T11:56:47.917Z,98879.31
2023-03-16T11:59:15.707Z,98888.22
2023-03-16T12:01:59.770Z,98877.53
2023-03-16T12:04:44.485Z,98882.00
2023-03-16T12:07:43.641Z,98873.59
2023-03-16T12:10:26.369Z,98865.94
2023-03-16T12:13:14.311Z,98862.28
2023-03-16T12:15:43.760Z,98869.28
2023-03-16T12:18:22.393Z,98873.63
2023-03-16T12:20:56.560Z,98855.59
2023-03-16T12:23:34.206Z,98846.41
2023-03-16T12:26:01.059Z,98853.16
2023-03-16T12:28:29.563Z,98840.88
2023-03-16T12:31:07.043Z,98835.91
2023-03-16T12:33:53.887Z,98835.53
2023-03-16T12:36:47.761Z,98829.34
2023-03-16T12:39:44.494Z,98823.34
2023-03-16T12:42:40.820Z,98824.78
2023-03-16T12:45:33.064Z,98842.53
2023-03-16T12:48:33.611Z,98823.50
2023-03-16T12:51:03.046Z,98819.66
2023-03-16T12:53:46.918Z,98818.56
2023-03-16T12:56:17.576Z,98823.56
2023-03-16T12:58:45.926Z,98824.88
2023-03-16T13:01:14.097Z,98815.75
2023-03-16T13:03:42.252Z,98820.44
2023-03-16T13:06:22.276Z,98815.53
2023-03-16T13:09:08.867Z,98818.63
2023-03-16T13:11:46.965Z,98802.97
2023-03-16T13:14:35.553Z,98797.47
2023-03-16T13:17:15.832Z,98809.13
2023-03-16T13:20:08.986Z,98805.03
2023-03-16T13:22:51.903Z,98809.94
2023-03-16T13:25:57.555Z,98800.88
2023-03-16T13:28:29.846Z,98805.25
2023-03-16T13:30:56.312Z,98797.78
2023-03-16T13:33:34.854Z,98796.75
2023-03-16T13:36:01.338Z,98793.41
2023-03-16T13:38:28.759Z,98786.91
2023-03-16T13:41:11.139Z,98796.97
2023-03-16T13:43:45.568Z,98785.66
2023-03-16T13:46:17.239Z,98791.91
2023-03-16T13:48:43.999Z,98793.09
2023-03-16T13:51:16.961Z,98788.16
2023-03-16T13:53:43.819Z,98787.94
2023-03-16T13:56:30.403Z,98775.34
2023-03-16T13:58:58.700Z,98778.88
2023-03-16T14:01:28.567Z,98770.44
2023-03-16T14:03:58.755Z,98761.53
2023-03-16T14:06:30.468Z,98761.16
2023-03-16T14:09:00.799Z,98743.88
2023-03-16T14:11:28.066Z,98750.66
2023-03-16T14:13:57.066Z,98752.31
2023-03-16T14:16:26.508Z,98747.56
2023-03-16T14:19:17.381Z,98752.31
2023-03-16T14:21:45.536Z,98747.56
2023-03-16T14:24:34.909Z,98751.06
2023-03-16T14:27:20.704Z,98744.81
2023-03-16T14:29:54.331Z,98733.56
2023-03-16T14:32:28.054Z,98736.06
2023-03-16T14:35:10.734Z,98723.78
2023-03-16T14:37:37.986Z,98710.75
2023-03-16T14:40:08.130Z,98708.63
2023-03-16T14:42:35.241Z,98711.84
2023-03-16T14:45:05.109Z,98711.72
2023-03-16T14:47:38.537Z,98703.69
2023-03-16T14:50:13.187Z,98694.50
2023-03-16T14:52:39.877Z,98694.16
2023-03-16T14:55:19.506Z,98696.03
2023-03-16T14:57:46.493Z,98679.84
2023-03-16T15:00:15.970Z,98697.13
2023-03-16T15:02:45.553Z,98690.81
2023-03-16T15:05:21.609Z,98690.72
2023-03-16T15:07:54.699Z,98686.78
2023-03-16T15:10:31.359Z,98689.69
2023-03-16T15:13:04.912Z,98693.81
2023-03-16T15:15:33.714Z,98689.84
2023-03-16T15:18:00.236Z,98702.22
2023-03-16T15:20:33.070Z,98698.97
2023-03-16T15:22:59.967Z,98692.75
2023-03-16T15:25:51.723Z,98697.06
2023-03-16T15:28:22.597Z,98702.44
2023-03-16T15:31:02.487Z,98702.00
2023-03-16T15:33:29.653Z,98684.56
2023-03-16T15:35:58.319Z,98687.44
2023-03-16T15:38:34.395Z,98693.59
2023-03-16T15:41:00.946Z,98677.13
2023-03-16T15:43:29.840Z,98678.56
2023-03-16T15:45:57.604Z,98673.19
2023-03-16T15:48:28.294Z,98675.28
2023-03-16T15:50:56.377Z,98681.22
2023-03-16T15:53:36.032Z,98689.25
2023-03-16T15:56:15.144Z,98692.00
2023-03-16T15:58:46.812Z,98688.28
2023-03-16T16:01:26.217Z,98685.84
2023-03-16T16:03:54.032Z,98686.00
2023-03-16T16:06:23.644Z,98702.22
2023-03-16T16:08:51.337Z,98688.91
2023-03-16T16:11:27.212Z,98690.09
2023-03-16T16:13:58.262Z,98692.63
2023-03-16T16:16:27.589Z,98693.25
2023-03-16T16:18:54.339Z,98688.50
2023-03-16T16:21:24.800Z,98693.63
2023-03-16T16:23:52.387Z,98689.31
2023-03-16T16:26:21.764Z,98686.84
2023-03-16T16:28:48.442Z,98691.81
2023-03-16T16:31:23.643Z,98686.44
2023-03-16T16:33:53.425Z,98680.06
2023-03-16T16:36:20.268Z,98682.97
2023-03-16T16:38:48.070Z,98680.66
2023-03-16T16:41:42.253Z,98677.59
2023-03-16T16:44:17.267Z,98681.72
2023-03-16T16:46:43.941Z,98672.84
2023-03-16T16:49:23.128Z,98670.78
2023-03-16T16:51:49.973Z,98681.06
2023-03-16T16:54:21.293Z,98681.66
2023-03-16T16:56:50.139Z,98679.56
2023-03-16T16:59:20.878Z,98670.81
2023-03-16T17:01:49.852Z,98666.50
2023-03-16T17:04:19.334Z,98661.94
2023-03-16T17:06:47.053Z,98669.03
2023-03-16T17:09:13.614Z,98660.59
2023-03-16T17:11:42.523Z,98671.44
2023-03-16T17:14:14.871Z,98669.72
2023-03-16T17:16:41.362Z,98662.56
2023-03-16T17:19:22.447Z,98668.22
2023-03-16T17:21:50.829Z,98668.63
2023-03-16T17:24:17.855Z,98663.00
2023-03-16T17:26:47.383Z,98663.25
2023-03-16T17:29:26.645Z,98656.63
2023-03-16T17:31:54.291Z,98657.41
2023-03-16T17:34:24.254Z,98650.75
2023-03-16T17:36:51.046Z,98656.22
2023-03-16T17:39:20.004Z,98657.00
2023-03-16T17:41:48.693Z,98654.56
2023-03-16T17:44:16.210Z,98666.97
2023-03-16T17:46:43.081Z,98648.53
2023-03-16T17:49:13.914Z,98649.78
2023-03-16T17:51:40.936Z,98656.31
2023-03-16T17:54:09.241Z,98665.25
2023-03-16T17:56:35.782Z,98660.25
2023-03-16T17:59:06.861Z,98661.00
2023-03-16T18:01:33.645Z,98667.91
2023-03-16T18:04:03.619Z,98659.63
2023-03-16T18:06:30.354Z,98652.56
2023-03-16T18:09:00.241Z,98651.19
2023-03-16T18:11:40.988Z,98655.94
2023-03-16T18:14:16.498Z,98654.84
2023-03-16T18:16:43.207Z,98657.34
2023-03-16T18:19:24.503Z,98660.38
2023-03-16T18:21:51.897Z,98660.94
2023-03-16T18:24:18.331Z,98655.22
2023-03-16T18:26:48.845Z,98659.66
2023-03-16T18:29:15.575Z,98661.81
2023-03-16T18:31:44.435Z,98656.22
2023-03-16T18:34:21.306Z,98666.13
2023-03-16T18:36:47.815Z,98665.13
2023-03-16T18:39:20.872Z,98669.81
2023-03-16T18:41:47.871Z,98665.16
2023-03-16T18:44:18.540Z,98668.38
2023-03-16T18:46:46.697Z,98652.22
2023-03-16T18:49:24.326Z,98661.13
2023-03-16T18:51:52.848Z,98662.03
2023-03-16T18:54:25.478Z,98655.63
2023-03-16T18:56:52.271Z,98657.81
2023-03-16T18:59:19.038Z,98666.00
2023-03-16T19:01:46.925Z,98664.69
2023-03-16T19:04:21.450Z,98660.97
2023-03-16T19:06:50.038Z,98656.63
2023-03-16T19:09:24.172Z,98651.66
2023-03-16T19:11:51.213Z,98652.31
2023-03-16T19:14:24.370Z,98657.28
2023-03-16T19:16:53.401Z,98654.53
2023-03-16T19:19:21.727Z,98651.94
2023-03-16T19:21:50.434Z,98652.75
2023-03-16T19:24:30.123Z,98652.66
2023-03-16T19:26:56.814Z,98650.22
2023-03-16T19:29:31.114Z,98646.25
2023-03-16T19:31:58.321Z,98647.25
2023-03-16T19:34:25.232Z,98650.28
2023-03-16T19:36:51.695Z,98643.22
2023-03-16T19:39:18.173Z,98643.59
2023-03-16T19:41:49.239Z,98641.00
2023-03-16T19:44:21.248Z,98657.09
2023-03-16T19:46:47.734Z,98641.00
2023-03-16T19:49:18.920Z,98643.66
2023-03-16T19:51:45.740Z,98644.00
2023-03-16T19:54:27.572Z,98652.13
2023-03-16T19:56:55.730Z,98648.75
2023-03-16T19:59:26.387Z,98644.97
2023-03-16T20:01:53.035Z,98657.69
2023-03-16T20:04:25.631Z,98650.19
2023-03-16T20:06:52.713Z,98653.22
2023-03-16T20:09:20.098Z,98664.78
2023-03-16T20:11:48.646Z,98674.47
2023-03-16T20:14:31.295Z,98681.19
2023-03-16T20:16:58.995Z,98678.88
2023-03-16T20:19:26.699Z,98688.13
2023-03-16T20:21:54.097Z,98672.56
2023-03-16T20:24:21.044Z,98664.25
2023-03-16T20:26:49.610Z,98664.09
2023-03-16T20:29:29.346Z,98663.59
2023-03-16T20:31:56.424Z,98669.09
2023-03-16T20:34:26.480Z,98658.94
2023-03-16T20:36:55.380Z,98645.00
2023-03-16T20:39:22.153Z,98650.28
2023-03-16T20:41:50.072Z,98642.97
2023-03-16T20:44:21.976Z,98656.63
2023-03-16T20:46:48.655Z,98661.34
2023-03-16T20:49:24.221Z,98665.50
2023-03-16T20:51:52.732Z,98673.84
2023-03-16T20:54:19.283Z,98683.69
2023-03-16T20:56:45.648Z,98691.66
2023-03-16T20:59:23.346Z,98705.94
2023-03-16T21:01:50.417Z,98704.31
2023-03-16T21:04:22.656Z,98710.44
2023-03-16T21:06:51.983Z,98717.59
2023-03-16T21:09:20.562Z,98719.06
2023-03-16T21:11:48.222Z,98731.53
2023-03-16T21:14:21.845Z,98741.13
2023-03-16T21:16:51.359Z,98749.38
2023-03-16T21:19:20.722Z,98752.03
2023-03-16T21:21:47.155Z,98744.94
2023-03-16T21:24:13.701Z,98743.09
2023-03-16T21:26:42.398Z,98730.69
2023-03-16T21:29:16.029Z,98724.56
2023-03-16T21:31:42.836Z,98722.91
2023-03-16T21:34:24.150Z,98722.25
2023-03-16T21:36:51.242Z,98717.63
2023-03-16T21:39:20.505Z,98717.78
2023-03-16T21:41:46.878Z,98723.41
2023-03-16T21:44:15.964Z,98722.44
2023-03-16T21:46:42.690Z,98722.56
2023-03-16T21:49:12.302Z,98722.22
2023-03-16T21:51:39.874Z,98722.91
2023-03-16T21:54:13.317Z,98715.78
2023-03-16T21:56:39.981Z,98716.28
2023-03-16T21:59:08.668Z,98713.78
2023-03-16T22:01:44.906Z,98713.97
2023-03-16T22:04:17.542Z,98716.63
2023-03-16T22:06:45.134Z,98694.09
2023-03-16T22:09:20.570Z,98705.34
2023-03-16T22:11:47.013Z,98701.75
2023-03-16T22:14:13.498Z,98678.88
2023-03-16T22:16:40.865Z,98680.72
2023-03-16T22:19:12.166Z,98679.53
2023-03-16T22:21:41.480Z,98684.81
2023-03-16T22:24:15.253Z,98675.91
2023-03-16T22:26:41.594Z,98666.28
2023-03-16T22:29:23.029Z,98663.31
2023-03-16T22:31:56.967Z,98659.34
2023-03-16T22:34:31.196Z,98633.47
2023-03-16T22:37:00.605Z,98637.44
2023-03-16T22:39:36.631Z,98633.31
2023-03-16T22:42:22.719Z,98648.72
2023-03-16T22:44:51.809Z,98654.38
2023-03-16T22:47:23.710Z,98660.34
2023-03-16T22:49:50.776Z,98673.59
2023-03-16T22:52:25.407Z,98684.69
2023-03-16T22:54:52.762Z,98684.84
2023-03-16T22:57:20.722Z,98690.78
2023-03-16T22:59:48.200Z,98694.44
2023-03-16T23:02:15.799Z,98689.16
2023-03-16T23:04:42.317Z,98684.84
2023-03-16T23:07:13.530Z,98685.81
2023-03-16T23:09:41.399Z,98687.31
2023-03-16T23:12:17.448Z,98684.00
2023-03-16T23:14:43.787Z,98697.91
2023-03-16T23:17:16.467Z,98706.16
2023-03-16T23:19:42.970Z,98710.47
2023-03-16T23:22:11.221Z,98710.47
2023-03-16T23:24:39.804Z,98720.19
2023-03-16T23:27:17.393Z,98718.19
2023-03-16T23:29:44.142Z,98721.34
2023-03-16T23:32:11.319Z,98724.31
2023-03-16T23:34:37.797Z,98726.63
2023-03-16T23:37:04.190Z,98726.44
2023-03-16T23:39:31.786Z,98723.31
2023-03-16T23:41:58.484Z,98720.97
2023-03-16T23:44:28.278Z,98708.44
2023-03-16T23:46:54.756Z,98710.41
2023-03-16T23:49:24.210Z,98721.81
2023-03-16T23:51:51.606Z,98720.16
2023-03-16T23:54:21.382Z,98719.16
2023-03-16T23:56:47.867Z,98722.47
2023-03-16T23:59:14.333Z,98724.28
